Aérodrome :
LOGIN :

S'inscrire | Disclaimer

   EN    FR    IT 

 










Légende :    VFR   VFR Marginal   IFR   IFR Intensif   IFR Très Intensif
Visi : 
Plafond : 
>= 8 km
>= 3000ft
5 à 8 km
1000 à 3000 ft
1500m à 5 km
500 à 1000 ft
800 à 1500m
200 à 500 ft
< 800m
< 200 ft
Symboles :   Orages  Brouillard  Fortes neiges  Fortes précipitations  Vent > 20 kt
SIGMETs :   Divers  Orages  Givrage  Turbulence  Onde Orograph.  Cendres Volcan.






- Altitude de l'aérodrome : 408 ft
- Code IATA : KWG


UKDR - Lozuvatka

DERNIER METAR :
  • 031730Z 22003MPS CAVOK 07/M09 Q1014 R36/09//70 NOSIG

METARs EXPIRÉS :
  • 031700Z 21003MPS CAVOK 08/M10 Q1014 R36/09//70 NOSIG
  • 031630Z 20003MPS CAVOK 08/M09 Q1013 R36/09//70 NOSIG
  • 031600Z 21004MPS CAVOK 11/M09 Q1013 R36/09//70 NOSIG
  • 031530Z 21006MPS CAVOK 12/M10 Q1013 R36/09//70 NOSIG
  • 031500Z 21005MPS 160V240 CAVOK 13/M11 Q1013 R36/09//70 NOSIG

TAF TAF UKDR
Valide du 03 à 18h jusqu'au 04 à 18h UTC


031703Z 0318/0418 VRB01MPS CAVOK TX16/0412Z TN00/0403Z



MET'MAP, la Météo Aéronautique d'un coup d'oeil ! - Copyright ORBIFLY Décembre 2007 - Disclaimer

ORBIFLY MET'MAP TEAM :

Programmation & Développement : Alexandra Zaïnal
Sur une idée originale de : Baudouin d'Aumeries
Assistance à la programmation : Marc-Olivier Méhu
Soutien technique & logistique : Manuel Goepfert

Contact : metmap@orbifly.com




SOURCES & CREDITS :

   NOAA